sensor_id;sensor_type;location;lat;lon;timestamp;pressure;altitude;pressure_sealevel;temperature;humidity
11987;BME280;6053;51.382;6.768;2023-02-14T00:01:49;103128.22;;;10.06;94.54
11987;BME280;6053;51.382;6.768;2023-02-14T00:04:19;103130.28;;;10.04;94.50
11987;BME280;6053;51.382;6.768;2023-02-14T00:06:47;103129.59;;;10.02;94.67
11987;BME280;6053;51.382;6.768;2023-02-14T00:09:18;103131.47;;;10.02;94.73
11987;BME280;6053;51.382;6.768;2023-02-14T00:11:47;103127.88;;;10.01;94.33
11987;BME280;6053;51.382;6.768;2023-02-14T00:14:16;103129.91;;;9.99;94.26
11987;BME280;6053;51.382;6.768;2023-02-14T00:17:02;103128.19;;;9.98;94.26
11987;BME280;6053;51.382;6.768;2023-02-14T00:19:31;103127.69;;;9.95;94.37
11987;BME280;6053;51.382;6.768;2023-02-14T00:22:01;103120.59;;;9.92;94.33
11987;BME280;6053;51.382;6.768;2023-02-14T00:24:31;103120.13;;;9.97;93.83
11987;BME280;6053;51.382;6.768;2023-02-14T00:27:00;103122.69;;;9.90;94.32
11987;BME280;6053;51.382;6.768;2023-02-14T00:29:30;103117.31;;;9.88;94.41
11987;BME280;6053;51.382;6.768;2023-02-14T00:31:59;103115.63;;;9.87;94.34
11987;BME280;6053;51.382;6.768;2023-02-14T00:34:28;103122.16;;;9.86;94.13
11987;BME280;6053;51.382;6.768;2023-02-14T00:36:59;103124.03;;;9.78;94.78
11987;BME280;6053;51.382;6.768;2023-02-14T00:39:27;103120.94;;;9.81;94.58
11987;BME280;6053;51.382;6.768;2023-02-14T00:41:57;103118.00;;;9.82;94.33
11987;BME280;6053;51.382;6.768;2023-02-14T00:44:26;103112.00;;;9.87;94.13
11987;BME280;6053;51.382;6.768;2023-02-14T00:46:54;103119.03;;;9.81;94.02
11987;BME280;6053;51.382;6.768;2023-02-14T00:49:23;103119.22;;;9.80;93.91
11987;BME280;6053;51.382;6.768;2023-02-14T00:51:51;103114.91;;;9.77;93.52
11987;BME280;6053;51.382;6.768;2023-02-14T00:54:20;103118.19;;;9.73;94.17
11987;BME280;6053;51.382;6.768;2023-02-14T00:56:49;103122.66;;;9.74;94.13
11987;BME280;6053;51.382;6.768;2023-02-14T00:59:19;103122.66;;;9.74;93.99
11987;BME280;6053;51.382;6.768;2023-02-14T01:01:47;103130.75;;;9.75;93.79
11987;BME280;6053;51.382;6.768;2023-02-14T01:04:16;103121.63;;;9.75;93.64
11987;BME280;6053;51.382;6.768;2023-02-14T01:06:44;103130.22;;;9.72;93.50
11987;BME280;6053;51.382;6.768;2023-02-14T01:09:13;103131.59;;;9.67;93.85
11987;BME280;6053;51.382;6.768;2023-02-14T01:11:41;103132.78;;;9.57;93.70
11987;BME280;6053;51.382;6.768;2023-02-14T01:14:10;103131.06;;;9.56;94.07
11987;BME280;6053;51.382;6.768;2023-02-14T01:16:40;103129.34;;;9.63;93.82
11987;BME280;6053;51.382;6.768;2023-02-14T01:19:08;103133.13;;;9.62;93.61
11987;BME280;6053;51.382;6.768;2023-02-14T01:21:37;103129.34;;;9.63;93.45
11987;BME280;6053;51.382;6.768;2023-02-14T01:24:06;103125.38;;;9.65;93.20
11987;BME280;6053;51.382;6.768;2023-02-14T01:26:35;103123.66;;;9.64;93.18
11987;BME280;6053;51.382;6.768;2023-02-14T01:29:04;103127.44;;;9.63;93.19
11987;BME280;6053;51.382;6.768;2023-02-14T01:31:34;103118.47;;;9.61;92.95
11987;BME280;6053;51.382;6.768;2023-02-14T01:34:04;103123.66;;;9.56;93.37
11987;BME280;6053;51.382;6.768;2023-02-14T01:36:35;103124.50;;;9.57;93.16
11987;BME280;6053;51.382;6.768;2023-02-14T01:39:05;103120.88;;;9.56;93.09
11987;BME280;6053;51.382;6.768;2023-02-14T01:41:36;103119.31;;;9.54;93.52
11987;BME280;6053;51.382;6.768;2023-02-14T01:44:49;103115.00;;;9.51;93.39
11987;BME280;6053;51.382;6.768;2023-02-14T01:46:55;103110.53;;;9.50;93.19
11987;BME280;6053;51.382;6.768;2023-02-14T01:49:28;103110.00;;;9.47;93.36
11987;BME280;6053;51.382;6.768;2023-02-14T01:52:01;103108.97;;;9.48;93.16
11987;BME280;6053;51.382;6.768;2023-02-14T01:54:33;103100.88;;;9.46;92.93
11987;BME280;6053;51.382;6.768;2023-02-14T01:57:08;103108.78;;;9.41;93.51
11987;BME280;6053;51.382;6.768;2023-02-14T01:59:42;103103.44;;;9.39;93.54
11987;BME280;6053;51.382;6.768;2023-02-14T02:02:13;103104.44;;;9.38;93.28
11987;BME280;6053;51.382;6.768;2023-02-14T02:04:45;103099.47;;;9.42;92.95
11987;BME280;6053;51.382;6.768;2023-02-14T02:07:18;103094.47;;;9.37;93.40
11987;BME280;6053;51.382;6.768;2023-02-14T02:09:50;103095.72;;;9.43;92.66
11987;BME280;6053;51.382;6.768;2023-02-14T02:12:21;103091.91;;;9.36;93.11
11987;BME280;6053;51.382;6.768;2023-02-14T02:14:51;103094.66;;;9.36;92.87
11987;BME280;6053;51.382;6.768;2023-02-14T02:17:26;103100.13;;;9.28;92.99
11987;BME280;6053;51.382;6.768;2023-02-14T02:20:55;103096.31;;;9.20;93.20
11987;BME280;6053;51.382;6.768;2023-02-14T02:24:00;103088.94;;;9.29;93.06
11987;BME280;6053;51.382;6.768;2023-02-14T02:36:10;103083.91;;;9.25;93.04
11987;BME280;6053;51.382;6.768;2023-02-14T02:38:59;103080.50;;;9.23;92.76
11987;BME280;6053;51.382;6.768;2023-02-14T02:41:37;103076.00;;;9.21;92.92
11987;BME280;6053;51.382;6.768;2023-02-14T02:44:16;103074.28;;;9.20;92.54
11987;BME280;6053;51.382;6.768;2023-02-14T02:46:51;103082.72;;;9.19;92.72
11987;BME280;6053;51.382;6.768;2023-02-14T02:49:35;103069.94;;;9.18;92.31
11987;BME280;6053;51.382;6.768;2023-02-14T02:52:27;103066.19;;;9.19;92.77
11987;BME280;6053;51.382;6.768;2023-02-14T02:55:19;103066.34;;;9.17;92.23
11987;BME280;6053;51.382;6.768;2023-02-14T02:57:50;103064.78;;;9.15;92.26
11987;BME280;6053;51.382;6.768;2023-02-14T03:00:21;103063.06;;;9.14;92.50
11987;BME280;6053;51.382;6.768;2023-02-14T03:02:54;103060.16;;;9.15;91.97
11987;BME280;6053;51.382;6.768;2023-02-14T03:05:41;103059.59;;;9.12;92.39
11987;BME280;6053;51.382;6.768;2023-02-14T03:08:11;103061.50;;;9.11;91.85
11987;BME280;6053;51.382;6.768;2023-02-14T03:10:40;103065.28;;;9.10;92.20
11987;BME280;6053;51.382;6.768;2023-02-14T03:13:45;103073.72;;;9.09;91.96
11987;BME280;6053;51.382;6.768;2023-02-14T03:16:33;103067.84;;;9.04;92.35
11987;BME280;6053;51.382;6.768;2023-02-14T03:19:30;103073.53;;;9.02;92.05
11987;BME280;6053;51.382;6.768;2023-02-14T03:22:04;103075.38;;;9.02;91.76
11987;BME280;6053;51.382;6.768;2023-02-14T03:24:44;103072.28;;;8.96;92.26
11987;BME280;6053;51.382;6.768;2023-02-14T03:27:48;103067.63;;;8.97;92.47
11987;BME280;6053;51.382;6.768;2023-02-14T03:38:03;103070.72;;;8.94;91.84
11987;BME280;6053;51.382;6.768;2023-02-14T03:40:37;103078.13;;;8.93;92.05
11987;BME280;6053;51.382;6.768;2023-02-14T03:43:10;103083.78;;;8.92;91.97
11987;BME280;6053;51.382;6.768;2023-02-14T03:45:43;103077.59;;;8.90;91.92
11987;BME280;6053;51.382;6.768;2023-02-14T03:48:15;103083.41;;;8.87;91.79
11987;BME280;6053;51.382;6.768;2023-02-14T03:50:45;103081.69;;;8.86;91.91
11987;BME280;6053;51.382;6.768;2023-02-14T03:53:18;103081.84;;;8.84;92.10
11987;BME280;6053;51.382;6.768;2023-02-14T03:55:54;103083.75;;;8.84;92.11
11987;BME280;6053;51.382;6.768;2023-02-14T03:58:28;103073.59;;;8.84;91.96
11987;BME280;6053;51.382;6.768;2023-02-14T04:01:02;103076.13;;;8.78;91.24
11987;BME280;6053;51.382;6.768;2023-02-14T04:03:32;103077.66;;;8.72;91.61
11987;BME280;6053;51.382;6.768;2023-02-14T04:06:03;103081.31;;;8.81;91.85
11987;BME280;6053;51.382;6.768;2023-02-14T04:08:31;103077.50;;;8.73;91.68
11987;BME280;6053;51.382;6.768;2023-02-14T04:11:02;103088.06;;;8.60;91.13
11987;BME280;6053;51.382;6.768;2023-02-14T04:13:32;103076.25;;;8.68;92.31
11987;BME280;6053;51.382;6.768;2023-02-14T04:16:01;103077.66;;;8.72;92.03
11987;BME280;6053;51.382;6.768;2023-02-14T04:18:30;103074.53;;;8.67;92.32
11987;BME280;6053;51.382;6.768;2023-02-14T04:21:17;103074.22;;;8.70;92.07
11987;BME280;6053;51.382;6.768;2023-02-14T04:23:45;103080.88;;;8.67;92.16
11987;BME280;6053;51.382;6.768;2023-02-14T04:26:15;103079.16;;;8.66;92.17
11987;BME280;6053;51.382;6.768;2023-02-14T04:28:44;103072.81;;;8.66;92.36
11987;BME280;6053;51.382;6.768;2023-02-14T04:31:12;103068.66;;;8.62;92.27
11987;BME280;6053;51.382;6.768;2023-02-14T04:33:41;103072.97;;;8.64;92.30
11987;BME280;6053;51.382;6.768;2023-02-14T04:36:11;103076.91;;;8.62;92.37
11987;BME280;6053;51.382;6.768;2023-02-14T04:38:39;103071.56;;;8.60;92.26
11987;BME280;6053;51.382;6.768;2023-02-14T04:41:08;103055.22;;;8.59;92.10
11987;BME280;6053;51.382;6.768;2023-02-14T04:43:38;103061.19;;;8.54;92.59
11987;BME280;6053;51.382;6.768;2023-02-14T04:46:06;103062.78;;;8.57;92.03
11987;BME280;6053;51.382;6.768;2023-02-14T04:48:35;103054.34;;;8.58;92.41
11987;BME280;6053;51.382;6.768;2023-02-14T04:51:04;103052.16;;;8.62;91.89
11987;BME280;6053;51.382;6.768;2023-02-14T04:53:33;103047.13;;;8.57;91.95
11987;BME280;6053;51.382;6.768;2023-02-14T04:56:06;103045.75;;;8.61;91.38
11987;BME280;6053;51.382;6.768;2023-02-14T04:58:37;103040.06;;;8.55;91.91
11987;BME280;6053;51.382;6.768;2023-02-14T05:01:06;103041.25;;;8.52;92.05
11987;BME280;6053;51.382;6.768;2023-02-14T05:03:35;103044.16;;;8.50;91.80
11987;BME280;6053;51.382;6.768;2023-02-14T05:06:03;103046.44;;;8.55;91.59
11987;BME280;6053;51.382;6.768;2023-02-14T05:08:32;103038.97;;;8.47;91.75
11987;BME280;6053;51.382;6.768;2023-02-14T05:11:00;103043.31;;;8.50;91.73
11987;BME280;6053;51.382;6.768;2023-02-14T05:13:29;103050.38;;;8.53;91.79
11987;BME280;6053;51.382;6.768;2023-02-14T05:15:59;103043.63;;;8.47;91.77
11987;BME280;6053;51.382;6.768;2023-02-14T05:18:28;103034.50;;;8.46;91.98
11987;BME280;6053;51.382;6.768;2023-02-14T05:20:56;103035.16;;;8.40;91.81
11987;BME280;6053;51.382;6.768;2023-02-14T05:23:25;103033.66;;;8.46;91.36
11987;BME280;6053;51.382;6.768;2023-02-14T05:25:54;103029.88;;;8.47;91.16
11987;BME280;6053;51.382;6.768;2023-02-14T05:28:23;103029.50;;;8.42;91.20
11987;BME280;6053;51.382;6.768;2023-02-14T05:30:51;103037.75;;;8.42;91.11
11987;BME280;6053;51.382;6.768;2023-02-14T05:33:21;103029.84;;;8.39;91.22
11987;BME280;6053;51.382;6.768;2023-02-14T05:35:50;103023.44;;;8.38;91.82
11987;BME280;6053;51.382;6.768;2023-02-14T05:38:19;103019.25;;;8.34;91.85
11987;BME280;6053;51.382;6.768;2023-02-14T05:40:48;103026.34;;;8.37;91.25
11987;BME280;6053;51.382;6.768;2023-02-14T05:43:16;103027.63;;;8.42;91.06
11987;BME280;6053;51.382;6.768;2023-02-14T05:45:45;103024.63;;;8.36;91.14
11987;BME280;6053;51.382;6.768;2023-02-14T05:48:14;103025.63;;;8.35;91.29
11987;BME280;6053;51.382;6.768;2023-02-14T05:50:43;103023.06;;;8.33;91.27
11987;BME280;6053;51.382;6.768;2023-02-14T05:53:12;103025.25;;;8.30;91.59
11987;BME280;6053;51.382;6.768;2023-02-14T05:55:41;103024.41;;;8.29;91.54
11987;BME280;6053;51.382;6.768;2023-02-14T05:58:10;103023.53;;;8.29;90.97
11987;BME280;6053;51.382;6.768;2023-02-14T06:00:39;103021.97;;;8.26;91.63
11987;BME280;6053;51.382;6.768;2023-02-14T06:03:08;103033.28;;;8.23;91.60
11987;BME280;6053;51.382;6.768;2023-02-14T06:05:36;103028.50;;;8.25;91.24
11987;BME280;6053;51.382;6.768;2023-02-14T06:08:06;103030.69;;;8.21;91.25
11987;BME280;6053;51.382;6.768;2023-02-14T06:10:34;103031.41;;;8.23;91.44
11987;BME280;6053;51.382;6.768;2023-02-14T06:13:03;103036.19;;;8.21;91.38
11987;BME280;6053;51.382;6.768;2023-02-14T06:15:35;103033.28;;;8.23;91.33
11987;BME280;6053;51.382;6.768;2023-02-14T06:18:05;103031.25;;;8.25;90.99
11987;BME280;6053;51.382;6.768;2023-02-14T06:20:33;103033.63;;;8.20;90.99
11987;BME280;6053;51.382;6.768;2023-02-14T06:23:02;103032.34;;;8.14;91.58
11987;BME280;6053;51.382;6.768;2023-02-14T06:25:32;103037.31;;;8.11;91.44
11987;BME280;6053;51.382;6.768;2023-02-14T06:28:01;103043.34;;;8.14;91.07
11987;BME280;6053;51.382;6.768;2023-02-14T06:30:29;103046.59;;;8.10;91.12
11987;BME280;6053;51.382;6.768;2023-02-14T06:32:58;103051.78;;;8.13;90.88
11987;BME280;6053;51.382;6.768;2023-02-14T06:35:27;103049.88;;;8.13;90.59
11987;BME280;6053;51.382;6.768;2023-02-14T06:37:55;103046.28;;;8.13;90.90
11987;BME280;6053;51.382;6.768;2023-02-14T06:40:24;103049.16;;;8.11;90.90
11987;BME280;6053;51.382;6.768;2023-02-14T06:42:54;103056.72;;;8.09;91.42
11987;BME280;6053;51.382;6.768;2023-02-14T06:45:22;103056.19;;;8.06;91.17
11987;BME280;6053;51.382;6.768;2023-02-14T06:47:51;103062.88;;;8.03;91.26
11987;BME280;6053;51.382;6.768;2023-02-14T06:50:19;103066.31;;;8.05;91.12
11987;BME280;6053;51.382;6.768;2023-02-14T06:52:48;103065.78;;;8.01;90.94
11987;BME280;6053;51.382;6.768;2023-02-14T06:55:17;103065.94;;;8.00;91.47
11987;BME280;6053;51.382;6.768;2023-02-14T06:57:46;103062.00;;;8.02;90.86
11987;BME280;6053;51.382;6.768;2023-02-14T07:00:17;103063.91;;;8.02;90.93
11987;BME280;6053;51.382;6.768;2023-02-14T07:02:46;103068.69;;;8.00;90.94
11987;BME280;6053;51.382;6.768;2023-02-14T07:05:15;103063.19;;;8.00;90.62
11987;BME280;6053;51.382;6.768;2023-02-14T07:07:45;103062.16;;;8.01;90.64
11987;BME280;6053;51.382;6.768;2023-02-14T07:10:14;103065.78;;;8.01;90.54
11987;BME280;6053;51.382;6.768;2023-02-14T07:12:43;103066.66;;;8.02;91.00
11987;BME280;6053;51.382;6.768;2023-02-14T07:15:12;103055.97;;;7.99;90.70
11987;BME280;6053;51.382;6.768;2023-02-14T07:17:42;103061.47;;;7.99;90.60
11987;BME280;6053;51.382;6.768;2023-02-14T07:20:12;103055.47;;;8.03;90.35
11987;BME280;6053;51.382;6.768;2023-02-14T07:22:40;103061.59;;;7.97;89.75
11987;BME280;6053;51.382;6.768;2023-02-14T07:25:10;103054.63;;;8.03;90.18
11987;BME280;6053;51.382;6.768;2023-02-14T07:27:39;103059.47;;;8.09;89.86
11987;BME280;6053;51.382;6.768;2023-02-14T07:30:10;103051.94;;;7.93;89.28
11987;BME280;6053;51.382;6.768;2023-02-14T07:32:40;103058.06;;;7.87;88.74
11987;BME280;6053;51.382;6.768;2023-02-14T07:35:10;103061.78;;;7.96;90.42
11987;BME280;6053;51.382;6.768;2023-02-14T07:37:41;103051.22;;;8.09;89.94
11987;BME280;6053;51.382;6.768;2023-02-14T07:40:11;103050.47;;;7.81;89.17
11987;BME280;6053;51.382;6.768;2023-02-14T07:42:41;103048.19;;;7.94;90.67
11987;BME280;6053;51.382;6.768;2023-02-14T07:45:10;103058.94;;;8.06;90.45
11987;BME280;6053;51.382;6.768;2023-02-14T07:47:48;103052.72;;;8.03;90.31
11987;BME280;6053;51.382;6.768;2023-02-14T07:50:18;103055.41;;;7.95;89.38
11987;BME280;6053;51.382;6.768;2023-02-14T07:52:48;103060.28;;;8.01;90.64
11987;BME280;6053;51.382;6.768;2023-02-14T07:55:16;103055.97;;;7.99;90.81
11987;BME280;6053;51.382;6.768;2023-02-14T07:57:47;103057.16;;;7.78;91.73
11987;BME280;6053;51.382;6.768;2023-02-14T08:00:16;103061.78;;;7.60;92.61
11987;BME280;6053;51.382;6.768;2023-02-14T08:02:45;103059.66;;;7.90;92.10
11987;BME280;6053;51.382;6.768;2023-02-14T08:05:13;103062.91;;;7.22;93.33
11987;BME280;6053;51.382;6.768;2023-02-14T08:07:43;103057.84;;;7.45;94.15
11987;BME280;6053;51.382;6.768;2023-02-14T08:10:14;103061.22;;;6.83;96.90
11987;BME280;6053;51.382;6.768;2023-02-14T08:12:42;103059.84;;;7.25;97.56
11987;BME280;6053;51.382;6.768;2023-02-14T08:15:26;103057.16;;;7.15;97.44
11987;BME280;6053;51.382;6.768;2023-02-14T08:18:13;103063.28;;;6.72;100.00
11987;BME280;6053;51.382;6.768;2023-02-14T08:20:41;103062.84;;;6.20;100.00
11987;BME280;6053;51.382;6.768;2023-02-14T08:23:12;103064.75;;;6.66;100.00
11987;BME280;6053;51.382;6.768;2023-02-14T08:25:40;103060.72;;;7.43;97.81
11987;BME280;6053;51.382;6.768;2023-02-14T08:28:09;103058.94;;;7.06;98.15
11987;BME280;6053;51.382;6.768;2023-02-14T08:30:40;103063.50;;;7.61;96.37
11987;BME280;6053;51.382;6.768;2023-02-14T08:33:09;103055.34;;;7.69;95.72
11987;BME280;6053;51.382;6.768;2023-02-14T08:35:38;103059.25;;;8.02;93.07
11987;BME280;6053;51.382;6.768;2023-02-14T08:38:07;103055.69;;;8.10;92.17
11987;BME280;6053;51.382;6.768;2023-02-14T08:40:37;103064.56;;;7.32;96.53
11987;BME280;6053;51.382;6.768;2023-02-14T08:43:07;103058.88;;;7.16;96.62
11987;BME280;6053;51.382;6.768;2023-02-14T08:45:36;103065.84;;;7.11;98.47
11987;BME280;6053;51.382;6.768;2023-02-14T08:48:06;103063.81;;;7.13;98.38
11987;BME280;6053;51.382;6.768;2023-02-14T08:50:36;103061.81;;;7.32;99.24
11987;BME280;6053;51.382;6.768;2023-02-14T08:53:07;103071.03;;;7.59;96.11
11987;BME280;6053;51.382;6.768;2023-02-14T08:55:38;103066.88;;;7.55;97.23
11987;BME280;6053;51.382;6.768;2023-02-14T08:58:07;103064.06;;;7.19;97.44
11987;BME280;6053;51.382;6.768;2023-02-14T09:00:36;103070.50;;;7.00;100.00
11987;BME280;6053;51.382;6.768;2023-02-14T09:03:04;103064.59;;;7.50;97.73
11987;BME280;6053;51.382;6.768;2023-02-14T09:05:33;103060.47;;;7.19;99.36
11987;BME280;6053;51.382;6.768;2023-02-14T09:08:02;103061.22;;;7.56;96.77
11987;BME280;6053;51.382;6.768;2023-02-14T09:10:31;103057.59;;;7.38;98.79
11987;BME280;6053;51.382;6.768;2023-02-14T09:13:01;103051.03;;;7.49;98.38
11987;BME280;6053;51.382;6.768;2023-02-14T09:15:30;103051.19;;;7.20;98.38
11987;BME280;6053;51.382;6.768;2023-02-14T09:17:58;103041.19;;;7.28;98.49
11987;BME280;6053;51.382;6.768;2023-02-14T09:20:27;103041.13;;;7.56;98.02
11987;BME280;6053;51.382;6.768;2023-02-14T09:22:56;103038.53;;;7.72;96.90
11987;BME280;6053;51.382;6.768;2023-02-14T09:25:24;103042.78;;;7.49;97.58
11987;BME280;6053;51.382;6.768;2023-02-14T09:27:53;103037.41;;;7.12;99.58
11987;BME280;6053;51.382;6.768;2023-02-14T09:30:23;103030.69;;;7.42;98.33
11987;BME280;6053;51.382;6.768;2023-02-14T09:32:52;103030.03;;;7.30;99.75
11987;BME280;6053;51.382;6.768;2023-02-14T09:35:21;103022.97;;;7.27;98.48
11987;BME280;6053;51.382;6.768;2023-02-14T09:37:49;103034.44;;;7.23;99.43
11987;BME280;6053;51.382;6.768;2023-02-14T09:40:35;103019.31;;;7.72;97.92
11987;BME280;6053;51.382;6.768;2023-02-14T09:43:08;103022.38;;;7.51;98.30
11987;BME280;6053;51.382;6.768;2023-02-14T09:45:40;103017.38;;;7.65;97.55
11987;BME280;6053;51.382;6.768;2023-02-14T09:48:13;103023.88;;;7.64;96.99
11987;BME280;6053;51.382;6.768;2023-02-14T09:50:50;103028.19;;;7.66;96.74
11987;BME280;6053;51.382;6.768;2023-02-14T09:53:25;103019.31;;;7.72;96.35
11987;BME280;6053;51.382;6.768;2023-02-14T09:56:00;103024.69;;;8.44;92.57
11987;BME280;6053;51.382;6.768;2023-02-14T09:58:35;103024.16;;;9.09;89.38
11987;BME280;6053;51.382;6.768;2023-02-14T10:01:14;103019.56;;;9.34;85.26
11987;BME280;6053;51.382;6.768;2023-02-14T10:04:12;103020.84;;;9.56;84.57
11987;BME280;6053;51.382;6.768;2023-02-14T10:06:47;103025.00;;;9.76;83.21
11987;BME280;6053;51.382;6.768;2023-02-14T10:09:31;103028.78;;;10.16;81.02
11987;BME280;6053;51.382;6.768;2023-02-14T10:12:13;103018.25;;;9.95;80.97
11987;BME280;6053;51.382;6.768;2023-02-14T10:14:43;103025.16;;;9.83;82.07
11987;BME280;6053;51.382;6.768;2023-02-14T10:17:17;103012.56;;;10.29;80.38
11987;BME280;6053;51.382;6.768;2023-02-14T10:19:53;103019.22;;;10.59;79.41
11987;BME280;6053;51.382;6.768;2023-02-14T10:22:30;103026.28;;;10.70;77.97
11987;BME280;6053;51.382;6.768;2023-02-14T10:25:05;103025.13;;;10.48;77.70
11987;BME280;6053;51.382;6.768;2023-02-14T10:27:37;103027.38;;;9.96;79.07
11987;BME280;6053;51.382;6.768;2023-02-14T10:30:12;103020.31;;;10.34;79.13
11987;BME280;6053;51.382;6.768;2023-02-14T10:32:45;103015.53;;;10.75;76.81
11987;BME280;6053;51.382;6.768;2023-02-14T10:35:22;103013.19;;;10.64;78.46
11987;BME280;6053;51.382;6.768;2023-02-14T10:38:04;103023.59;;;10.37;78.49
11987;BME280;6053;51.382;6.768;2023-02-14T10:40:46;103007.84;;;10.54;78.85
11987;BME280;6053;51.382;6.768;2023-02-14T10:43:26;103015.44;;;10.52;79.33
11987;BME280;6053;51.382;6.768;2023-02-14T10:46:05;103012.72;;;10.36;79.61
11987;BME280;6053;51.382;6.768;2023-02-14T10:48:48;103001.00;;;9.68;81.28
11987;BME280;6053;51.382;6.768;2023-02-14T10:51:23;103000.00;;;9.78;81.35
11987;BME280;6053;51.382;6.768;2023-02-14T10:54:12;102991.16;;;9.41;85.25
11987;BME280;6053;51.382;6.768;2023-02-14T10:56:48;102991.53;;;9.55;84.21
11987;BME280;6053;51.382;6.768;2023-02-14T10:59:22;102990.88;;;9.53;83.90
11987;BME280;6053;51.382;6.768;2023-02-14T11:01:54;102993.44;;;9.46;84.11
11987;BME280;6053;51.382;6.768;2023-02-14T11:04:25;102990.69;;;9.54;84.03
11987;BME280;6053;51.382;6.768;2023-02-14T11:06:53;102986.53;;;9.50;83.31
11987;BME280;6053;51.382;6.768;2023-02-14T11:09:22;102984.47;;;9.52;85.75
11987;BME280;6053;51.382;6.768;2023-02-14T11:11:53;102978.44;;;9.65;84.48
11987;BME280;6053;51.382;6.768;2023-02-14T11:14:27;102969.31;;;9.64;82.24
11987;BME280;6053;51.382;6.768;2023-02-14T11:16:57;102975.84;;;9.55;84.52
11987;BME280;6053;51.382;6.768;2023-02-14T11:19:29;102968.09;;;9.59;86.58
11987;BME280;6053;51.382;6.768;2023-02-14T11:21:58;102967.78;;;9.62;83.94
11987;BME280;6053;51.382;6.768;2023-02-14T11:24:31;102970.88;;;9.67;81.99
11987;BME280;6053;51.382;6.768;2023-02-14T11:27:02;102964.50;;;9.75;82.14
11987;BME280;6053;51.382;6.768;2023-02-14T11:29:34;102968.13;;;9.75;81.57
11987;BME280;6053;51.382;6.768;2023-02-14T11:32:07;102970.88;;;9.75;83.39
11987;BME280;6053;51.382;6.768;2023-02-14T11:34:39;102964.66;;;9.65;82.58
11987;BME280;6053;51.382;6.768;2023-02-14T11:37:24;102961.06;;;9.81;83.68
11987;BME280;6053;51.382;6.768;2023-02-14T11:39:54;102961.41;;;9.78;81.81
11987;BME280;6053;51.382;6.768;2023-02-14T11:42:36;102961.06;;;9.81;83.96
11987;BME280;6053;51.382;6.768;2023-02-14T11:45:06;102948.66;;;9.77;83.36
11987;BME280;6053;51.382;6.768;2023-02-14T11:47:35;102944.88;;;9.78;85.87
11987;BME280;6053;51.382;6.768;2023-02-14T11:50:21;102946.56;;;9.79;82.69
11987;BME280;6053;51.382;6.768;2023-02-14T11:52:53;102936.94;;;9.83;81.16
11987;BME280;6053;51.382;6.768;2023-02-14T11:55:25;102933.50;;;9.81;83.54
11987;BME280;6053;51.382;6.768;2023-02-14T11:57:55;102932.78;;;9.95;80.20
11987;BME280;6053;51.382;6.768;2023-02-14T12:00:25;102928.16;;;9.87;81.24
11987;BME280;6053;51.382;6.768;2023-02-14T12:02:58;102922.63;;;9.87;83.14
11987;BME280;6053;51.382;6.768;2023-02-14T12:05:32;102919.88;;;9.87;82.67
11987;BME280;6053;51.382;6.768;2023-02-14T12:08:04;102919.81;;;10.12;81.24
11987;BME280;6053;51.382;6.768;2023-02-14T12:10:35;102913.59;;;10.18;80.49
11987;BME280;6053;51.382;6.768;2023-02-14T12:13:20;102910.88;;;10.10;80.88
11987;BME280;6053;51.382;6.768;2023-02-14T12:15:52;102905.88;;;10.13;82.77
11987;BME280;6053;51.382;6.768;2023-02-14T12:18:39;102902.25;;;10.05;80.15
11987;BME280;6053;51.382;6.768;2023-02-14T12:21:26;102899.16;;;10.08;80.02
11987;BME280;6053;51.382;6.768;2023-02-14T12:24:09;102890.53;;;10.11;79.15
11987;BME280;6053;51.382;6.768;2023-02-14T12:26:43;102892.75;;;10.15;79.74
11987;BME280;6053;51.382;6.768;2023-02-14T12:29:19;102886.72;;;10.20;82.62
11987;BME280;6053;51.382;6.768;2023-02-14T12:31:49;102884.97;;;10.19;82.57
11987;BME280;6053;51.382;6.768;2023-02-14T12:34:18;102875.00;;;10.26;78.56
11987;BME280;6053;51.382;6.768;2023-02-14T12:36:59;102871.00;;;10.21;78.22
11987;BME280;6053;51.382;6.768;2023-02-14T12:39:36;102869.13;;;10.21;80.96
11987;BME280;6053;51.382;6.768;2023-02-14T12:42:21;102858.59;;;10.33;80.40
11987;BME280;6053;51.382;6.768;2023-02-14T12:45:03;102858.53;;;10.41;79.91
11987;BME280;6053;51.382;6.768;2023-02-14T12:47:38;102853.25;;;10.31;77.27
11987;BME280;6053;51.382;6.768;2023-02-14T12:50:22;102852.03;;;10.34;81.21
11987;BME280;6053;51.382;6.768;2023-02-14T12:56:00;102848.91;;;10.37;81.64
11987;BME280;6053;51.382;6.768;2023-02-14T12:58:43;102840.47;;;10.22;81.93
11987;BME280;6053;51.382;6.768;2023-02-14T13:04:51;102840.78;;;10.44;79.56
11987;BME280;6053;51.382;6.768;2023-02-14T13:07:31;102837.81;;;10.53;78.49
11987;BME280;6053;51.382;6.768;2023-02-14T13:10:14;102834.28;;;10.59;77.16
11987;BME280;6053;51.382;6.768;2023-02-14T13:12:50;102834.75;;;10.40;80.34
11987;BME280;6053;51.382;6.768;2023-02-14T13:15:27;102830.59;;;10.44;79.20
11987;BME280;6053;51.382;6.768;2023-02-14T13:18:02;102825.25;;;10.43;80.60
11987;BME280;6053;51.382;6.768;2023-02-14T13:20:41;102818.16;;;10.48;81.44
11987;BME280;6053;51.382;6.768;2023-02-14T13:23:14;102818.22;;;10.32;81.68
11987;BME280;6053;51.382;6.768;2023-02-14T13:25:50;102815.63;;;10.38;83.85
11987;BME280;6053;51.382;6.768;2023-02-14T13:28:19;102807.97;;;10.49;80.55
11987;BME280;6053;51.382;6.768;2023-02-14T13:30:49;102813.06;;;10.37;82.38
11987;BME280;6053;51.382;6.768;2023-02-14T13:33:30;102801.44;;;10.50;81.65
11987;BME280;6053;51.382;6.768;2023-02-14T13:36:03;102805.03;;;10.50;84.21
11987;BME280;6053;51.382;6.768;2023-02-14T13:38:39;102803.69;;;10.46;85.96
11987;BME280;6053;51.382;6.768;2023-02-14T13:41:12;102801.44;;;10.50;83.38
11987;BME280;6053;51.382;6.768;2023-02-14T13:43:49;102795.78;;;10.43;83.48
11987;BME280;6053;51.382;6.768;2023-02-14T13:46:21;102789.63;;;10.56;83.36
11987;BME280;6053;51.382;6.768;2023-02-14T13:49:23;102798.66;;;10.50;82.07
11987;BME280;6053;51.382;6.768;2023-02-14T13:51:54;102787.16;;;10.46;84.13
11987;BME280;6053;51.382;6.768;2023-02-14T13:54:33;102787.69;;;10.65;80.02
11987;BME280;6053;51.382;6.768;2023-02-14T13:57:24;102785.63;;;10.67;84.60
11987;BME280;6053;51.382;6.768;2023-02-14T14:00:34;102779.75;;;10.70;81.43
11987;BME280;6053;51.382;6.768;2023-02-14T14:03:05;102782.03;;;10.58;82.12
11987;BME280;6053;51.382;6.768;2023-02-14T14:05:59;102780.47;;;10.64;81.89